createdAt,value
2022-09-23T00:02:03.671Z,2.30
2022-09-23T00:04:33.000Z,2.60
2022-09-23T00:07:02.492Z,2.30
2022-09-23T00:09:31.893Z,2.10
2022-09-23T00:12:03.750Z,2.10
2022-09-23T00:14:36.080Z,2.20
2022-09-23T00:17:05.357Z,2.20
2022-09-23T00:19:35.003Z,1.80
2022-09-23T00:22:04.407Z,2.20
2022-09-23T00:24:33.645Z,2.10
2022-09-23T00:27:03.007Z,2.00
2022-09-23T00:29:32.973Z,2.10
2022-09-23T00:32:02.539Z,2.40
2022-09-23T00:34:32.005Z,2.30
2022-09-23T00:37:01.251Z,2.30
2022-09-23T00:39:30.454Z,2.30
2022-09-23T00:41:59.802Z,2.10
2022-09-23T00:44:51.709Z,2.00
2022-09-23T00:47:30.403Z,1.80
2022-09-23T00:50:22.608Z,3.00
2022-09-23T00:52:56.435Z,2.20
2022-09-23T00:55:36.268Z,2.10
2022-09-23T00:58:12.076Z,2.20
2022-09-23T01:00:41.719Z,2.70
2022-09-23T01:03:13.061Z,2.30
2022-09-23T01:05:44.078Z,2.50
2022-09-23T01:08:15.796Z,2.50
2022-09-23T01:11:02.647Z,2.50
2022-09-23T01:13:40.179Z,2.40
2022-09-23T01:16:47.258Z,2.00
2022-09-23T01:20:21.586Z,1.60
2022-09-23T01:23:15.463Z,2.20
2022-09-23T01:26:23.996Z,2.50
2022-09-23T01:29:39.845Z,2.60
2022-09-23T01:32:55.272Z,2.30
2022-09-23T01:35:45.868Z,2.70
2022-09-23T01:38:43.404Z,2.60
2022-09-23T01:41:53.301Z,2.50
2022-09-23T01:44:44.745Z,2.70
2022-09-23T01:47:45.285Z,2.80
2022-09-23T01:50:56.163Z,2.50
2022-09-23T01:53:39.720Z,2.60
2022-09-23T01:56:44.613Z,2.80
2022-09-23T01:59:38.355Z,2.80
2022-09-23T02:02:29.574Z,3.40
2022-09-23T02:05:21.161Z,2.70
2022-09-23T02:08:11.371Z,3.10
2022-09-23T02:10:50.566Z,3.00
2022-09-23T02:13:35.933Z,3.30
2022-09-23T02:16:21.254Z,3.40
2022-09-23T02:18:59.313Z,3.50
2022-09-23T02:21:37.218Z,2.70
2022-09-23T02:24:21.520Z,2.30
2022-09-23T02:27:42.695Z,2.70
2022-09-23T02:30:28.288Z,2.30
2022-09-23T02:33:06.760Z,2.30
2022-09-23T02:35:52.897Z,2.30
2022-09-23T02:38:48.245Z,2.30
2022-09-23T02:41:51.174Z,2.70
2022-09-23T02:44:24.691Z,3.40
2022-09-23T02:46:54.382Z,3.20
2022-09-23T02:49:32.580Z,3.10
2022-09-23T02:52:06.780Z,3.20
2022-09-23T02:54:38.305Z,3.40
2022-09-23T02:57:09.587Z,2.90
2022-09-23T02:59:40.237Z,3.00
2022-09-23T03:02:45.873Z,3.30
2022-09-23T03:05:34.598Z,4.00
2022-09-23T03:08:20.471Z,3.30
2022-09-23T03:11:05.761Z,2.80
2022-09-23T03:14:07.969Z,2.70
2022-09-23T03:16:49.275Z,2.40
2022-09-23T03:19:49.532Z,2.80
2022-09-23T03:22:40.653Z,2.80
2022-09-23T03:25:16.986Z,2.60
2022-09-23T03:27:47.756Z,2.40
2022-09-23T03:30:17.414Z,2.40
2022-09-23T03:32:48.579Z,3.30
2022-09-23T03:35:18.693Z,3.50
2022-09-23T03:38:05.298Z,2.70
2022-09-23T03:40:42.901Z,3.40
2022-09-23T03:43:14.674Z,3.30
2022-09-23T03:45:43.959Z,3.60
2022-09-23T03:48:14.835Z,3.00
2022-09-23T03:50:45.587Z,3.40
2022-09-23T03:53:15.553Z,2.60
2022-09-23T03:55:44.826Z,3.10
2022-09-23T03:58:14.128Z,2.60
2022-09-23T04:00:44.524Z,3.10
2022-09-23T04:03:13.508Z,3.20
2022-09-23T04:05:42.650Z,2.90
2022-09-23T04:08:11.900Z,3.30
2022-09-23T04:10:43.702Z,2.60
2022-09-23T04:13:13.411Z,2.90
2022-09-23T04:15:43.071Z,2.40
2022-09-23T04:18:12.189Z,4.20
2022-09-23T04:20:41.898Z,2.70
2022-09-23T04:23:11.109Z,2.60
2022-09-23T04:25:50.407Z,2.70
2022-09-23T04:28:19.420Z,3.30
2022-09-23T04:30:49.919Z,3.10
2022-09-23T04:33:20.100Z,2.50
2022-09-23T04:35:53.918Z,2.60
2022-09-23T04:38:24.098Z,2.80
2022-09-23T04:40:53.509Z,2.60
2022-09-23T04:43:24.497Z,2.90
2022-09-23T04:46:05.474Z,2.30
2022-09-23T04:48:40.696Z,2.80
2022-09-23T04:51:14.914Z,4.00
2022-09-23T04:53:47.558Z,2.50
2022-09-23T04:56:20.028Z,2.20
2022-09-23T04:58:50.413Z,2.30
2022-09-23T05:01:27.636Z,2.40
2022-09-23T05:04:03.501Z,2.30
2022-09-23T05:06:36.006Z,2.50
2022-09-23T05:09:09.530Z,2.50
2022-09-23T05:11:38.638Z,2.90
2022-09-23T05:14:07.555Z,2.90
2022-09-23T05:16:37.362Z,2.20
2022-09-23T05:19:06.864Z,2.40
2022-09-23T05:21:38.822Z,2.40
2022-09-23T05:24:08.410Z,2.10
2022-09-23T05:26:37.629Z,2.70
2022-09-23T05:29:07.034Z,2.30
2022-09-23T05:31:36.710Z,2.50
2022-09-23T05:34:07.713Z,2.10
2022-09-23T05:36:39.241Z,2.00
2022-09-23T05:39:09.804Z,2.00
2022-09-23T05:41:39.740Z,2.00
2022-09-23T05:44:08.990Z,2.10
2022-09-23T05:46:38.522Z,1.90
2022-09-23T05:49:08.467Z,3.20
2022-09-23T05:51:37.754Z,2.70
2022-09-23T05:54:07.686Z,1.90
2022-09-23T05:56:38.282Z,1.70
2022-09-23T05:59:07.975Z,2.20
2022-09-23T06:01:39.515Z,1.80
2022-09-23T06:04:13.165Z,1.70
2022-09-23T06:06:44.233Z,2.20
2022-09-23T06:09:16.132Z,2.20
2022-09-23T06:11:45.579Z,1.90
2022-09-23T06:14:15.992Z,2.30
2022-09-23T06:16:45.254Z,2.30
2022-09-23T06:19:15.053Z,1.90
2022-09-23T06:21:44.168Z,1.90
2022-09-23T06:24:16.984Z,1.90
2022-09-23T06:26:47.263Z,2.20
2022-09-23T06:29:16.748Z,2.10
2022-09-23T06:31:46.145Z,2.20
2022-09-23T06:34:16.082Z,2.00
2022-09-23T06:36:48.758Z,1.90
2022-09-23T06:39:18.541Z,1.80
2022-09-23T06:41:48.136Z,2.10
2022-09-23T06:44:17.327Z,1.90
2022-09-23T06:46:46.542Z,2.10
2022-09-23T06:49:15.894Z,2.40
2022-09-23T06:51:45.014Z,2.10
2022-09-23T06:54:14.655Z,2.10
2022-09-23T06:56:48.495Z,2.00
2022-09-23T06:59:18.032Z,1.90
2022-09-23T07:01:49.180Z,2.20
2022-09-23T07:04:18.415Z,2.20
2022-09-23T07:06:47.820Z,2.40
2022-09-23T07:09:17.174Z,2.40
2022-09-23T07:11:48.749Z,2.10
2022-09-23T07:14:18.381Z,2.10
2022-09-23T07:16:51.670Z,2.20
2022-09-23T07:19:20.866Z,1.90
2022-09-23T07:21:50.439Z,2.00
2022-09-23T07:24:19.691Z,2.20
2022-09-23T07:26:49.985Z,2.10
2022-09-23T07:29:19.291Z,2.30
2022-09-23T07:31:48.395Z,2.10
2022-09-23T07:34:17.724Z,2.00
2022-09-23T07:36:46.787Z,2.20
2022-09-23T07:39:16.170Z,2.00
2022-09-23T07:41:45.635Z,2.40
2022-09-23T07:44:14.785Z,2.00
2022-09-23T07:46:44.389Z,2.30
2022-09-23T07:49:14.721Z,1.90
2022-09-23T07:51:47.231Z,2.10
2022-09-23T07:54:19.473Z,1.90
2022-09-23T07:56:49.610Z,1.90
2022-09-23T07:59:20.595Z,1.80
2022-09-23T08:01:56.234Z,2.00
2022-09-23T08:04:32.610Z,1.90
2022-09-23T08:07:05.757Z,1.90
2022-09-23T08:09:42.833Z,1.80
2022-09-23T08:12:17.025Z,2.20
2022-09-23T08:14:46.714Z,2.10
2022-09-23T08:17:16.273Z,1.80
2022-09-23T08:19:45.371Z,2.20
2022-09-23T08:22:14.555Z,1.90
2022-09-23T08:24:44.067Z,2.10
2022-09-23T08:27:13.692Z,2.40
2022-09-23T08:29:42.981Z,2.00
2022-09-23T08:32:12.281Z,2.20
2022-09-23T08:34:42.705Z,2.20
2022-09-23T08:37:15.879Z,2.30
2022-09-23T08:39:45.693Z,1.80
2022-09-23T08:42:28.729Z,2.10
2022-09-23T08:45:05.546Z,2.10
2022-09-23T08:47:51.645Z,2.00
2022-09-23T08:50:43.664Z,2.00
2022-09-23T08:53:51.817Z,2.30
2022-09-23T08:56:26.181Z,2.00
2022-09-23T08:59:22.195Z,2.30
2022-09-23T09:02:01.330Z,2.00
2022-09-23T09:04:45.457Z,1.80
2022-09-23T09:07:41.513Z,2.30
2022-09-23T09:10:27.829Z,1.80
2022-09-23T09:13:08.656Z,1.80
2022-09-23T09:15:49.546Z,2.20
2022-09-23T09:18:24.019Z,2.00
2022-09-23T09:21:14.328Z,2.30
2022-09-23T09:23:59.564Z,2.50
2022-09-23T09:26:35.574Z,2.30
2022-09-23T09:29:35.059Z,2.30
2022-09-23T09:32:26.539Z,2.10
2022-09-23T09:35:10.814Z,2.50
2022-09-23T09:37:49.067Z,2.00
2022-09-23T09:40:21.411Z,2.20
2022-09-23T09:42:52.634Z,2.10
2022-09-23T09:46:09.881Z,2.00
2022-09-23T09:49:02.055Z,2.30
2022-09-23T09:51:31.941Z,1.90
2022-09-23T09:54:27.091Z,2.10
2022-09-23T09:56:57.368Z,2.30
2022-09-23T09:59:30.767Z,2.30
2022-09-23T10:02:25.539Z,2.00
2022-09-23T10:05:08.222Z,2.10
2022-09-23T10:07:37.869Z,2.10
2022-09-23T10:10:36.615Z,2.30
2022-09-23T10:13:21.074Z,2.40
2022-09-23T10:15:50.944Z,2.30
2022-09-23T10:18:40.629Z,2.10
2022-09-23T10:21:27.706Z,1.90
2022-09-23T10:24:01.930Z,2.70
2022-09-23T10:26:34.337Z,2.40
2022-09-23T10:29:32.005Z,2.30
2022-09-23T10:32:38.652Z,2.20
2022-09-23T10:35:11.728Z,2.50
2022-09-23T10:37:52.148Z,2.30
2022-09-23T10:41:03.303Z,2.10
2022-09-23T10:44:15.175Z,2.20
2022-09-23T10:47:15.803Z,2.30
2022-09-23T10:50:59.477Z,2.50
2022-09-23T10:54:09.266Z,2.10
2022-09-23T10:57:02.477Z,2.30
2022-09-23T11:00:05.787Z,2.30
2022-09-23T11:03:03.934Z,2.40
2022-09-23T11:06:03.649Z,2.30
2022-09-23T11:08:57.014Z,2.30
2022-09-23T11:11:57.206Z,2.40
2022-09-23T11:15:08.612Z,2.80
2022-09-23T11:18:17.806Z,2.60
2022-09-23T11:21:15.554Z,2.50
2022-09-23T11:24:29.207Z,2.10
2022-09-23T11:27:49.880Z,2.20
2022-09-23T11:30:22.425Z,2.20
2022-09-23T11:33:32.865Z,2.40
2022-09-23T11:36:33.916Z,2.30
2022-09-23T11:39:16.145Z,2.20
2022-09-23T11:41:48.169Z,2.40
2022-09-23T11:44:32.542Z,2.50
2022-09-23T11:47:20.669Z,2.40
2022-09-23T11:50:00.554Z,2.20
2022-09-23T11:52:37.481Z,2.60
2022-09-23T11:55:22.982Z,3.00
2022-09-23T11:58:15.881Z,2.50
2022-09-23T12:01:08.393Z,2.30
2022-09-23T12:03:49.687Z,2.20
2022-09-23T12:07:02.382Z,2.50
2022-09-23T12:10:01.391Z,2.60
2022-09-23T12:13:31.592Z,2.40
2022-09-23T12:16:36.660Z,2.40
2022-09-23T12:19:56.561Z,2.60
2022-09-23T12:23:07.675Z,2.70
2022-09-23T12:26:03.460Z,2.20
2022-09-23T12:28:46.165Z,2.50
2022-09-23T12:31:23.776Z,2.60
2022-09-23T12:33:55.694Z,2.70
2022-09-23T12:36:40.592Z,2.60
2022-09-23T12:39:31.849Z,2.80
2022-09-23T12:42:04.616Z,2.60
2022-09-23T12:44:43.097Z,2.90
2022-09-23T12:47:29.265Z,2.90
2022-09-23T12:49:59.215Z,2.90
2022-09-23T12:52:36.819Z,2.50
2022-09-23T12:55:24.583Z,2.70
2022-09-23T12:57:54.144Z,2.80
2022-09-23T13:00:33.538Z,2.90
2022-09-23T13:03:22.511Z,2.90
2022-09-23T13:06:20.685Z,3.00
2022-09-23T13:08:54.526Z,2.90
2022-09-23T13:11:34.571Z,3.50
2022-09-23T13:14:08.078Z,3.10
2022-09-23T13:16:47.079Z,2.80
2022-09-23T13:19:28.285Z,2.80
2022-09-23T13:22:08.925Z,2.80
2022-09-23T13:24:45.876Z,2.60
2022-09-23T13:27:20.744Z,3.10
2022-09-23T13:30:25.059Z,2.90
2022-09-23T13:33:24.064Z,2.50
2022-09-23T13:36:00.297Z,2.80
2022-09-23T13:38:33.178Z,3.00
2022-09-23T13:41:09.276Z,2.60
2022-09-23T13:44:06.815Z,2.90
2022-09-23T13:46:55.133Z,3.10
2022-09-23T13:49:33.701Z,2.40
2022-09-23T13:52:07.888Z,2.70
2022-09-23T13:54:51.991Z,2.70
2022-09-23T13:57:39.012Z,2.80
2022-09-23T14:00:22.674Z,2.80
2022-09-23T14:02:54.072Z,3.20
2022-09-23T14:05:28.215Z,2.60
2022-09-23T14:07:58.882Z,3.10
2022-09-23T14:10:29.457Z,3.00
2022-09-23T14:13:00.614Z,3.50
2022-09-23T14:15:31.588Z,3.10
2022-09-23T14:18:08.242Z,2.70
2022-09-23T14:20:51.323Z,2.60
2022-09-23T14:23:21.180Z,3.10
2022-09-23T14:25:52.676Z,3.00
2022-09-23T14:28:28.570Z,3.00
2022-09-23T14:30:59.726Z,3.30
2022-09-23T14:33:34.276Z,3.10
2022-09-23T14:36:35.992Z,3.20
2022-09-23T14:39:10.585Z,3.00
2022-09-23T14:41:44.879Z,3.10
2022-09-23T14:44:40.347Z,2.90
2022-09-23T14:47:16.450Z,3.50
2022-09-23T14:50:12.049Z,2.70
2022-09-23T14:52:55.544Z,3.00
2022-09-23T14:55:32.558Z,3.60
2022-09-23T14:58:14.697Z,3.20
2022-09-23T15:01:01.662Z,3.00
2022-09-23T15:03:31.040Z,3.30
2022-09-23T15:06:10.245Z,3.30
2022-09-23T15:08:39.868Z,3.20
2022-09-23T15:11:10.031Z,3.40
2022-09-23T15:13:48.110Z,3.30
2022-09-23T15:16:31.015Z,3.60
2022-09-23T15:19:02.819Z,3.30
2022-09-23T15:21:45.229Z,3.50
2022-09-23T15:24:47.144Z,3.20
2022-09-23T15:27:34.344Z,3.20
2022-09-23T15:30:21.027Z,3.50
2022-09-23T15:32:50.515Z,3.40
2022-09-23T15:35:26.708Z,3.50
2022-09-23T15:38:01.549Z,3.70
2022-09-23T15:40:37.483Z,3.60
2022-09-23T15:43:28.023Z,4.20
2022-09-23T15:46:08.930Z,3.80
2022-09-23T15:48:58.871Z,3.70
2022-09-23T15:51:30.312Z,3.60
2022-09-23T15:53:59.998Z,4.00
2022-09-23T15:56:28.874Z,3.40
2022-09-23T15:58:58.578Z,3.50
2022-09-23T16:01:32.985Z,3.50
2022-09-23T16:04:05.694Z,3.30
2022-09-23T16:06:37.052Z,3.80
2022-09-23T16:09:06.508Z,3.30
2022-09-23T16:11:36.912Z,3.80
2022-09-23T16:14:06.474Z,3.50
2022-09-23T16:16:35.709Z,3.90
2022-09-23T16:19:04.967Z,3.70
2022-09-23T16:21:34.988Z,3.50
2022-09-23T16:24:05.431Z,3.80
2022-09-23T16:26:41.419Z,3.80
2022-09-23T16:29:12.661Z,3.70
2022-09-23T16:31:42.460Z,3.70
2022-09-23T16:34:11.955Z,4.10
2022-09-23T16:36:44.598Z,3.80
2022-09-23T16:39:15.505Z,3.50
2022-09-23T16:41:44.920Z,4.10
2022-09-23T16:44:15.370Z,4.10
2022-09-23T16:46:44.622Z,3.60
2022-09-23T16:49:13.888Z,3.20
2022-09-23T16:51:43.061Z,3.80
2022-09-23T16:54:14.477Z,3.60
2022-09-23T16:56:46.172Z,3.80
2022-09-23T16:59:17.794Z,3.70
2022-09-23T17:02:05.485Z,4.20
2022-09-23T17:04:35.095Z,3.50
2022-09-23T17:07:04.450Z,3.80
2022-09-23T17:09:34.099Z,3.90
2022-09-23T17:12:28.855Z,3.30
2022-09-23T17:14:57.928Z,3.90
2022-09-23T17:17:28.869Z,3.90
2022-09-23T17:19:58.054Z,3.60
2022-09-23T17:22:27.263Z,3.70
2022-09-23T17:25:06.407Z,3.90
2022-09-23T17:27:36.665Z,3.70
2022-09-23T17:30:07.476Z,4.00
2022-09-23T17:32:36.530Z,3.30
2022-09-23T17:35:06.010Z,4.00
2022-09-23T17:37:35.881Z,3.90
2022-09-23T17:40:06.788Z,3.90
2022-09-23T17:42:40.335Z,4.20
2022-09-23T17:45:13.480Z,4.40
2022-09-23T17:47:43.283Z,4.30
2022-09-23T17:50:12.375Z,3.80
2022-09-23T17:52:41.471Z,3.90
2022-09-23T17:55:13.248Z,4.20
2022-09-23T17:57:42.551Z,4.10
2022-09-23T18:00:12.784Z,4.00
2022-09-23T18:02:41.982Z,4.00
2022-09-23T18:05:11.452Z,4.00
2022-09-23T18:07:41.019Z,4.40
2022-09-23T18:10:11.196Z,3.70
2022-09-23T18:12:40.422Z,4.30
2022-09-23T18:15:09.963Z,4.40
2022-09-23T18:17:39.149Z,4.10
2022-09-23T18:20:09.438Z,3.90
2022-09-23T18:22:38.714Z,3.80
2022-09-23T18:25:28.514Z,3.60
2022-09-23T18:27:57.759Z,4.10
2022-09-23T18:30:28.278Z,4.50
2022-09-23T18:32:57.324Z,4.20
2022-09-23T18:35:27.189Z,3.90
2022-09-23T18:37:57.055Z,3.40
2022-09-23T18:40:26.189Z,4.40
2022-09-23T18:42:55.558Z,4.00
2022-09-23T18:45:24.825Z,3.60
2022-09-23T18:48:12.829Z,3.70
2022-09-23T18:50:44.099Z,4.00
2022-09-23T18:53:13.506Z,4.40
2022-09-23T18:55:43.904Z,4.10
2022-09-23T18:58:14.299Z,4.00
2022-09-23T19:00:43.750Z,4.10
2022-09-23T19:03:13.124Z,4.40
2022-09-23T19:05:42.408Z,3.80
2022-09-23T19:08:11.693Z,4.50
2022-09-23T19:10:41.045Z,3.80
2022-09-23T19:13:10.317Z,4.20
2022-09-23T19:15:39.729Z,4.80
2022-09-23T19:18:09.007Z,4.30
2022-09-23T19:20:38.229Z,4.60
2022-09-23T19:23:07.828Z,4.50
2022-09-23T19:25:38.534Z,4.00
2022-09-23T19:28:09.311Z,4.60
2022-09-23T19:30:39.910Z,4.50
2022-09-23T19:33:10.989Z,4.60
2022-09-23T19:35:52.898Z,4.50
2022-09-23T19:38:22.565Z,4.30
2022-09-23T19:40:56.110Z,4.50
2022-09-23T19:43:26.173Z,4.50
2022-09-23T19:45:58.772Z,4.20
2022-09-23T19:48:28.155Z,4.50
2022-09-23T19:50:57.470Z,4.40
2022-09-23T19:53:29.544Z,3.80
2022-09-23T19:55:59.006Z,4.20
2022-09-23T19:58:28.348Z,4.40
2022-09-23T20:00:57.937Z,4.10
2022-09-23T20:03:28.024Z,4.00
2022-09-23T20:06:01.099Z,4.40
2022-09-23T20:08:30.284Z,4.20
2022-09-23T20:10:59.633Z,4.50
2022-09-23T20:13:29.945Z,4.70
2022-09-23T20:16:00.578Z,4.40
2022-09-23T20:18:30.982Z,4.20
2022-09-23T20:20:59.981Z,4.20
2022-09-23T20:23:30.697Z,4.50
2022-09-23T20:26:23.943Z,5.10
2022-09-23T20:28:53.354Z,4.50
2022-09-23T20:31:24.241Z,4.70
2022-09-23T20:33:58.373Z,4.40
2022-09-23T20:36:30.147Z,4.60
2022-09-23T20:39:05.194Z,4.60
2022-09-23T20:41:38.522Z,4.20
2022-09-23T20:44:13.544Z,4.50
2022-09-23T20:46:48.497Z,4.50
2022-09-23T20:49:21.869Z,4.80
2022-09-23T20:51:51.486Z,4.90
2022-09-23T20:54:21.160Z,4.60
2022-09-23T20:56:50.730Z,4.30
2022-09-23T20:59:20.309Z,5.10
2022-09-23T21:01:54.863Z,4.60
2022-09-23T21:04:28.230Z,4.60
2022-09-23T21:06:59.149Z,5.10
2022-09-23T21:09:32.013Z,4.90
2022-09-23T21:12:01.394Z,5.00
2022-09-23T21:14:32.412Z,4.50
2022-09-23T21:17:01.844Z,4.70
2022-09-23T21:19:31.381Z,4.70
2022-09-23T21:22:00.861Z,4.90
2022-09-23T21:25:25.699Z,4.50
2022-09-23T21:27:20.442Z,5.10
2022-09-23T21:29:49.630Z,5.10
2022-09-23T21:32:18.874Z,4.70
2022-09-23T21:34:49.421Z,5.40
2022-09-23T21:37:19.473Z,4.90
2022-09-23T21:40:08.669Z,4.80
2022-09-23T21:42:37.837Z,4.80
2022-09-23T21:45:08.186Z,5.50
2022-09-23T21:47:37.370Z,5.00
2022-09-23T21:50:07.306Z,4.60
2022-09-23T21:52:37.226Z,4.60
2022-09-23T21:55:06.938Z,5.10
2022-09-23T21:57:36.384Z,4.40
2022-09-23T22:00:08.378Z,4.40
2022-09-23T22:02:40.855Z,5.00
2022-09-23T22:05:10.390Z,4.70
2022-09-23T22:07:39.764Z,4.80
2022-09-23T22:10:09.646Z,4.90
2022-09-23T22:12:39.041Z,5.60
2022-09-23T22:15:09.114Z,5.10
2022-09-23T22:17:38.095Z,4.90
2022-09-23T22:20:08.372Z,5.00
2022-09-23T22:22:37.870Z,5.10
2022-09-23T22:25:07.937Z,5.80
2022-09-23T22:27:56.937Z,4.90
2022-09-23T22:30:44.392Z,5.10
2022-09-23T22:33:18.166Z,5.10
2022-09-23T22:35:47.595Z,5.10
2022-09-23T22:38:17.436Z,5.60
2022-09-23T22:40:46.910Z,5.20
2022-09-23T22:43:16.381Z,4.90
2022-09-23T22:45:52.742Z,6.00
2022-09-23T22:48:22.156Z,5.10
2022-09-23T22:50:51.362Z,5.00
2022-09-23T22:53:21.264Z,5.00
2022-09-23T22:56:06.034Z,5.00
2022-09-23T22:58:35.526Z,5.30
2022-09-23T23:01:04.648Z,4.90
2022-09-23T23:03:36.232Z,5.50
2022-09-23T23:06:06.733Z,5.70
2022-09-23T23:08:37.240Z,5.00
2022-09-23T23:11:11.118Z,5.40
2022-09-23T23:13:44.954Z,5.00
2022-09-23T23:16:14.934Z,5.70
2022-09-23T23:18:46.749Z,4.90
2022-09-23T23:21:18.349Z,4.80
2022-09-23T23:23:51.621Z,5.20
2022-09-23T23:26:30.425Z,4.60
2022-09-23T23:29:00.747Z,4.90
2022-09-23T23:31:33.097Z,5.00
2022-09-23T23:34:02.442Z,4.80
2022-09-23T23:36:32.172Z,4.90
2022-09-23T23:39:01.714Z,4.30
2022-09-23T23:41:31.272Z,4.80
2022-09-23T23:44:02.074Z,4.60
2022-09-23T23:46:33.664Z,5.10
2022-09-23T23:49:03.021Z,5.30
2022-09-23T23:51:32.290Z,5.40
2022-09-23T23:54:02.047Z,4.90
2022-09-23T23:56:35.472Z,5.30
2022-09-23T23:59:05.995Z,4.80
